Flight Track Log - Related Links

Times and Time Zones

All times are in EDT time to prevent confusion due to time zone crossing. See the SKW7363 flight status page for this flight to view local times or setup timezone preferences in your user account.

Time Position Orientation Groundspeed Altitude Reporting Facility
EDT Latitude Longitude Course Direction KTS MPH feet Rate Location/Type
Thu 12:43:15 PM 44.9000 -93.2500 313° West 162 186 2,200  Level Minneapolis TRACON
Thu 12:44:15 PM 44.9333 -93.3000 313° West 195 224 4,400 2,250 Climbing Minneapolis TRACON
Thu 12:45:15 PM 44.9500 -93.3833 286° West 243 280 6,700 2,400 Climbing Minneapolis TRACON
Thu 12:46:15 PM 44.9667 -93.4833 283° West 268 308 9,200 2,311 Climbing Minneapolis TRACON
Thu 12:47:17 PM 44.9819 -93.5833 282° West 275 316 11,400 2,371 Climbing Minneapolis Center
Thu 12:48:19 PM 44.9931 -93.6972 278° West 294 338 14,100 2,371 Climbing Minneapolis Center
Thu 12:49:21 PM 45.0022 -93.8083 277° West 290 334 16,300 2,032 Climbing Minneapolis Center
Thu 12:50:23 PM 45.0114 -93.9264 276° West 305 351 18,300 1,984 Climbing Minneapolis Center
Thu 12:51:25 PM 45.0283 -94.0700 280° West 310 357 20,400 1,839 Climbing Minneapolis Center
Thu 12:52:27 PM 45.0475 -94.1939 282° West 322 371 22,100 1,392 Climbing Minneapolis Center
Thu 12:53:30 PM 45.0667 -94.3192 282° West 327 376 23,300 1,200 Climbing Minneapolis Center
Thu 12:54:32 PM 45.0872 -94.4514 282° West 341 392 24,600 1,306 Climbing Minneapolis Center
Thu 12:55:34 PM 45.1011 -94.5864 278° West 348 400 26,000 1,210 Climbing Minneapolis Center
Thu 12:56:36 PM 45.1153 -94.7342 278° West 350 403 27,100 968 Climbing Minneapolis Center
Thu 12:57:38 PM 45.1294 -94.8736 278° West 357 411 28,000 435 Climbing Minneapolis Center
Thu 12:58:40 PM 45.1433 -95.0136 278° West 359 413 28,000  Level Minneapolis Center
Thu 12:59:42 PM 45.1589 -95.1797 278° West 357 411 28,000  Level Minneapolis Center
Thu 01:00:44 PM 45.1722 -95.3167 278° West 353 406 28,000  Level Minneapolis Center
Thu 01:01:46 PM 45.1847 -95.4500 278° West 345 397 28,000  Level Minneapolis Center
Thu 01:02:48 PM 45.1967 -95.5814 277° West 340 391 28,000 -48 Level Minneapolis Center
Thu 01:03:50 PM 45.2083 -95.7103 277° West 334 384 27,900 -672 Descending Minneapolis Center
Thu 01:04:53 PM 45.2217 -95.8544 278° West 314 361 26,600 -1,152 Descending Minneapolis Center
Thu 01:05:55 PM 45.2314 -95.9669 277° West 298 343 25,500 -1,065 Descending Minneapolis Center
Thu 01:06:57 PM 45.2392 -96.0717 276° West 278 320 24,400 -1,113 Descending Minneapolis Center
Thu 01:07:59 PM 45.2494 -96.1700 278° West 261 300 23,200 -1,258 Descending Minneapolis Center
Thu 01:09:01 PM 45.2519 -96.2728 272° West 260 299 21,800 -1,403 Descending Minneapolis Center
Thu 01:10:03 PM 45.2514 -96.3992 270° West 266 306 20,300 -1,355 Descending Minneapolis Center
Thu 01:11:05 PM 45.2511 -96.4986 270° West 258 297 19,000 -1,258 Descending Minneapolis Center
Thu 01:12:07 PM 45.2525 -96.5953 271° West 250 288 17,700 -1,258 Descending Minneapolis Center
Thu 01:13:09 PM 45.2533 -96.6881 271° West 241 277 16,400 -1,258 Descending Minneapolis Center
Thu 01:14:11 PM 45.2514 -96.7792 268° West 234 269 15,100 -1,258 Descending Minneapolis Center
Thu 01:15:13 PM 45.2478 -96.8689 267° West 231 266 13,800 -1,210 Descending Minneapolis Center
Thu 01:16:15 PM 45.2447 -96.9811 268° West 237 273 12,600 -968 Descending Minneapolis Center
Thu 01:17:17 PM 45.2436 -97.0817 269° West 249 287 11,800 -774 Descending Minneapolis Center
Thu 01:18:19 PM 45.2431 -97.1803 270° West 252 290 11,000 -774 Descending Minneapolis Center
Thu 01:19:21 PM 45.2414 -97.2789 269° West 252 290 10,200 -774 Descending Minneapolis Center
Thu 01:20:23 PM 45.2406 -97.3775 269° West 251 289 9,400 -871 Descending Minneapolis Center
Thu 01:21:25 PM 45.2411 -97.4939 270° West 248 285 8,400 -864 Descending Minneapolis Center
Thu 01:22:28 PM 45.2392 -97.5917 268° West 249 287 7,600 -720 Descending Minneapolis Center
Thu 01:23:30 PM 45.2372 -97.6894 268° West 248 285 6,900 -726 Descending Minneapolis Center
Thu 01:24:32 PM 45.2328 -97.7906 266° West 249 287 6,100 -387 Descending Minneapolis Center
Thu 01:25:34 PM 45.2289 -97.8836 267° West 243 280 6,100  Level Minneapolis Center
Thu 01:26:36 PM 45.2256 -97.9736 267° West 235 270 6,100 -145 Level Minneapolis Center
Thu 01:27:38 PM 45.2286 -98.0664 273° West 234 269 5,800 -677 Descending Minneapolis Center
Thu 01:28:40 PM 45.2519 -98.1447 293° West 227 261 4,700 -1,065 Descending Minneapolis Center
Thu 01:29:42 PM 45.3028 -98.2072 319° Northwest 212 244 3,600 -1,065 Descending Minneapolis Center
Thu 01:31:00 PM 45.3697 -98.3143 312° West  Level FlightAware Approximate
Thu 01:38:00 PM 45.4333 -98.4167 299° West  Level FlightAware Approximate
Thu 01:39:00 PM 45.4491 -98.4218 299° West  Level Estimated
Thu 01:40:00 PM 45.4491 -98.4218 299° West  Level Estimated
Thu 01:41:00 PM 45.4491 -98.4218 299° West  Level Estimated

Login

Don't have an account? Register now (free) for customized features, flight alerts, and more!